createdAt,value
2023-07-25T00:00:40.176Z,8.75
2023-07-25T00:03:43.271Z,9.48
2023-07-25T00:06:46.193Z,8.47
2023-07-25T00:09:49.607Z,9.10
2023-07-25T00:12:54.545Z,8.30
2023-07-25T00:15:57.427Z,8.40
2023-07-25T00:19:00.219Z,8.88
2023-07-25T00:22:03.685Z,8.70
2023-07-25T00:25:07.573Z,8.57
2023-07-25T00:28:10.481Z,8.60
2023-07-25T00:31:13.492Z,7.72
2023-07-25T00:34:16.276Z,8.23
2023-07-25T00:37:19.030Z,6.70
2023-07-25T00:40:24.279Z,4.40
2023-07-25T00:43:27.182Z,3.72
2023-07-25T00:46:30.135Z,3.42
2023-07-25T00:49:32.922Z,3.55
2023-07-25T00:52:35.744Z,3.50
2023-07-25T00:55:39.334Z,2.63
2023-07-25T00:58:42.605Z,3.33
2023-07-25T01:01:45.572Z,2.60
2023-07-25T01:04:48.502Z,2.08
2023-07-25T01:07:51.298Z,1.90
2023-07-25T01:10:54.848Z,1.60
2023-07-25T01:13:57.989Z,2.00
2023-07-25T01:17:22.337Z,1.85
2023-07-25T01:20:27.048Z,1.83
2023-07-25T01:23:30.752Z,1.70
2023-07-25T01:26:33.518Z,1.17
2023-07-25T01:29:36.352Z,1.63
2023-07-25T01:32:39.620Z,1.13
2023-07-25T01:35:42.852Z,1.45
2023-07-25T01:38:45.745Z,1.40
2023-07-25T01:41:48.525Z,1.40
2023-07-25T01:44:51.289Z,1.35
2023-07-25T01:47:54.610Z,1.60
2023-07-25T01:50:57.861Z,1.38
2023-07-25T01:54:00.794Z,1.50
2023-07-25T01:57:04.525Z,1.30
2023-07-25T02:00:08.140Z,1.77
2023-07-25T02:03:19.587Z,1.67
2023-07-25T02:06:22.384Z,1.55
2023-07-25T02:09:25.197Z,1.70
2023-07-25T02:12:30.291Z,1.70
2023-07-25T02:15:33.165Z,1.60
2023-07-25T02:18:36.155Z,1.45
2023-07-25T02:21:39.372Z,1.80
2023-07-25T02:24:42.187Z,1.60
2023-07-25T02:27:45.032Z,1.40
2023-07-25T02:30:48.104Z,1.80
2023-07-25T02:33:50.978Z,1.90
2023-07-25T02:36:53.731Z,1.55
2023-07-25T02:39:56.477Z,2.03
2023-07-25T02:42:59.366Z,1.80
2023-07-25T02:46:03.133Z,1.70
2023-07-25T02:49:06.456Z,1.80
2023-07-25T02:52:09.681Z,1.90
2023-07-25T02:55:12.782Z,1.73
2023-07-25T02:58:15.759Z,1.70
2023-07-25T03:01:18.921Z,1.75
2023-07-25T03:04:21.989Z,1.80
2023-07-25T03:07:24.820Z,1.95
2023-07-25T03:10:28.230Z,1.70
2023-07-25T03:13:30.983Z,1.73
2023-07-25T03:16:34.593Z,1.80
2023-07-25T03:19:37.608Z,1.70
2023-07-25T03:22:40.439Z,1.75
2023-07-25T03:25:43.194Z,1.30
2023-07-25T03:28:46.047Z,1.95
2023-07-25T03:31:48.844Z,2.00
2023-07-25T03:34:51.729Z,1.73
2023-07-25T03:37:54.554Z,2.03
2023-07-25T03:40:57.270Z,1.87
2023-07-25T03:44:00.078Z,1.90
2023-07-25T03:47:03.112Z,1.90
2023-07-25T03:50:06.478Z,1.88
2023-07-25T03:53:09.217Z,2.17
2023-07-25T03:56:13.946Z,1.93
2023-07-25T03:59:17.742Z,2.00
2023-07-25T04:02:20.997Z,2.10
2023-07-25T04:05:23.952Z,2.20
2023-07-25T04:08:26.827Z,2.05
2023-07-25T04:11:30.123Z,2.30
2023-07-25T04:14:33.408Z,1.90
2023-07-25T04:17:37.770Z,1.90
2023-07-25T04:20:40.541Z,1.85
2023-07-25T04:23:44.343Z,2.45
2023-07-25T04:26:47.106Z,2.10
2023-07-25T04:29:49.990Z,1.80
2023-07-25T04:32:52.875Z,2.03
2023-07-25T04:35:56.167Z,2.35
2023-07-25T04:38:58.953Z,2.40
2023-07-25T04:42:01.712Z,2.40
2023-07-25T04:45:05.921Z,2.00
2023-07-25T04:48:08.940Z,1.58
2023-07-25T04:51:11.713Z,1.98
2023-07-25T04:54:14.596Z,2.33
2023-07-25T04:57:17.476Z,2.30
2023-07-25T05:00:20.734Z,1.80
2023-07-25T05:03:23.870Z,1.63
2023-07-25T05:06:26.728Z,1.77
2023-07-25T05:09:29.486Z,1.70
2023-07-25T05:12:32.269Z,1.80
2023-07-25T05:15:35.231Z,1.65
2023-07-25T05:18:38.256Z,1.77
2023-07-25T05:21:43.491Z,1.83
2023-07-25T05:24:46.860Z,1.95
2023-07-25T05:27:49.727Z,1.40
2023-07-25T05:30:52.427Z,1.65
2023-07-25T05:33:55.205Z,1.60
2023-07-25T05:36:58.066Z,1.52
2023-07-25T05:40:00.810Z,1.90
2023-07-25T05:43:04.501Z,1.70
2023-07-25T05:46:09.014Z,1.90
2023-07-25T05:49:11.796Z,2.00
2023-07-25T05:52:14.537Z,1.27
2023-07-25T05:55:17.398Z,1.40
2023-07-25T05:58:20.173Z,1.37
2023-07-25T06:01:22.972Z,1.30
2023-07-25T06:04:25.889Z,1.50
2023-07-25T06:07:28.650Z,1.55
2023-07-25T06:10:31.904Z,1.50
2023-07-25T06:13:35.288Z,1.00
2023-07-25T06:16:38.246Z,1.40
2023-07-25T06:19:41.060Z,1.20
2023-07-25T06:22:43.998Z,1.30
2023-07-25T06:25:46.883Z,1.05
2023-07-25T06:28:49.712Z,1.20
2023-07-25T06:31:52.709Z,1.00
2023-07-25T06:34:55.611Z,1.00
2023-07-25T06:37:58.389Z,1.30
2023-07-25T06:41:01.236Z,1.02
2023-07-25T06:44:04.238Z,1.15
2023-07-25T06:47:07.541Z,1.10
2023-07-25T06:50:10.628Z,1.40
2023-07-25T06:53:14.478Z,1.00
2023-07-25T06:56:17.753Z,1.52
2023-07-25T06:59:20.800Z,1.48
2023-07-25T07:02:27.029Z,1.50
2023-07-25T07:05:31.603Z,1.20
2023-07-25T07:08:35.851Z,0.93
2023-07-25T07:15:25.859Z,1.20
2023-07-25T07:18:28.879Z,1.00
2023-07-25T07:21:31.992Z,1.50
2023-07-25T07:24:35.065Z,1.00
2023-07-25T07:27:37.947Z,1.20
2023-07-25T07:30:41.159Z,1.58
2023-07-25T07:33:44.112Z,1.13
2023-07-25T07:36:46.889Z,1.10
2023-07-25T07:39:49.699Z,1.30
2023-07-25T07:42:52.654Z,1.30
2023-07-25T07:45:58.283Z,1.90
2023-07-25T07:49:01.580Z,1.77
2023-07-25T07:52:15.733Z,1.73
2023-07-25T07:55:25.661Z,1.90
2023-07-25T07:58:28.398Z,2.15
2023-07-25T08:01:31.346Z,2.10
2023-07-25T08:04:36.293Z,2.70
2023-07-25T08:07:39.620Z,2.60
2023-07-25T08:10:42.692Z,2.10
2023-07-25T08:13:45.570Z,2.78
2023-07-25T08:16:48.433Z,2.92
2023-07-25T08:19:54.002Z,2.70
2023-07-25T08:22:58.533Z,2.70
2023-07-25T08:26:04.809Z,3.10
2023-07-25T08:29:07.628Z,3.10
2023-07-25T08:32:11.461Z,3.25
2023-07-25T08:35:14.872Z,3.42
2023-07-25T08:38:17.720Z,3.30
2023-07-25T08:41:26.677Z,3.40
2023-07-25T08:44:29.872Z,3.15
2023-07-25T08:47:34.911Z,3.60
2023-07-25T08:50:39.474Z,4.40
2023-07-25T08:53:51.402Z,3.78
2023-07-25T08:56:54.752Z,3.73
2023-07-25T08:59:58.874Z,3.45
2023-07-25T09:03:02.863Z,3.78
2023-07-25T09:06:16.750Z,3.60
2023-07-25T09:09:20.106Z,3.92
2023-07-25T09:12:23.158Z,3.27
2023-07-25T09:15:26.206Z,3.67
2023-07-25T09:18:29.317Z,4.18
2023-07-25T09:21:32.456Z,3.90
2023-07-25T09:24:40.317Z,3.60
2023-07-25T09:27:47.640Z,4.10
2023-07-25T09:30:52.697Z,4.20
2023-07-25T09:33:57.503Z,3.95
2023-07-25T09:37:05.382Z,3.35
2023-07-25T09:40:12.549Z,4.30
2023-07-25T09:43:28.574Z,3.77
2023-07-25T09:46:31.344Z,3.78
2023-07-25T09:49:34.645Z,4.40
2023-07-25T09:52:44.331Z,3.90
2023-07-25T09:55:47.188Z,4.00
2023-07-25T10:02:05.341Z,4.68
2023-07-25T10:05:08.848Z,4.57
2023-07-25T10:08:17.259Z,4.45
2023-07-25T10:11:20.212Z,4.60
2023-07-25T10:14:23.611Z,4.73
2023-07-25T10:17:26.850Z,5.20
2023-07-25T10:20:29.878Z,5.00
2023-07-25T10:23:37.670Z,4.60
2023-07-25T10:27:02.004Z,4.93
2023-07-25T10:30:25.740Z,4.30
2023-07-25T10:33:28.790Z,4.10
2023-07-25T10:36:31.641Z,3.67
2023-07-25T10:39:34.802Z,4.03
2023-07-25T10:46:01.069Z,4.33
2023-07-25T10:49:21.909Z,3.72
2023-07-25T10:52:44.903Z,3.83
2023-07-25T10:56:09.139Z,4.00
2023-07-25T10:59:14.077Z,3.20
2023-07-25T11:02:38.294Z,4.03
2023-07-25T11:05:41.996Z,3.33
2023-07-25T11:08:45.242Z,3.80
2023-07-25T11:11:50.488Z,3.60
2023-07-25T11:14:56.154Z,3.83
2023-07-25T11:18:08.348Z,3.27
2023-07-25T11:21:11.508Z,4.07
2023-07-25T11:24:16.148Z,3.45
2023-07-25T11:27:19.447Z,3.95
2023-07-25T11:30:23.140Z,3.78
2023-07-25T11:33:26.743Z,3.43
2023-07-25T11:36:39.534Z,3.30
2023-07-25T11:39:43.478Z,5.50
2023-07-25T11:42:48.781Z,4.80
2023-07-25T11:45:51.666Z,3.90
2023-07-25T11:48:55.055Z,3.40
2023-07-25T11:51:57.788Z,3.10
2023-07-25T11:55:02.744Z,3.33
2023-07-25T11:58:05.637Z,3.50
2023-07-25T12:01:11.614Z,3.60
2023-07-25T12:04:17.199Z,3.23
2023-07-25T12:07:22.431Z,3.33
2023-07-25T12:10:33.094Z,3.65
2023-07-25T12:13:54.408Z,3.42
2023-07-25T12:17:04.441Z,3.83
2023-07-25T12:20:14.330Z,4.00
2023-07-25T12:23:17.406Z,4.03
2023-07-25T12:26:23.153Z,4.10
2023-07-25T12:29:26.417Z,4.30
2023-07-25T12:32:32.497Z,4.80
2023-07-25T12:35:35.477Z,4.10
2023-07-25T12:38:38.292Z,4.75
2023-07-25T12:41:43.728Z,3.83
2023-07-25T12:44:46.503Z,3.75
2023-07-25T12:47:49.697Z,4.25
2023-07-25T12:50:52.565Z,4.30
2023-07-25T12:53:56.981Z,3.58
2023-07-25T12:57:00.008Z,3.45
2023-07-25T13:00:07.047Z,3.70
2023-07-25T13:03:10.738Z,3.92
2023-07-25T13:06:13.707Z,4.17
2023-07-25T13:09:16.553Z,3.78
2023-07-25T13:12:19.489Z,4.05
2023-07-25T13:15:22.494Z,3.53
2023-07-25T13:18:30.397Z,3.35
2023-07-25T13:21:36.646Z,3.57
2023-07-25T13:24:39.812Z,3.30
2023-07-25T13:27:44.226Z,3.60
2023-07-25T13:30:47.837Z,3.40
2023-07-25T13:33:51.066Z,3.65
2023-07-25T13:36:54.204Z,3.43
2023-07-25T13:39:57.914Z,3.97
2023-07-25T13:43:04.174Z,3.50
2023-07-25T13:46:10.375Z,3.17
2023-07-25T13:49:13.795Z,3.72
2023-07-25T13:52:16.544Z,3.73
2023-07-25T13:55:19.258Z,3.67
2023-07-25T13:58:24.682Z,3.80
2023-07-25T14:01:27.701Z,4.50
2023-07-25T14:04:30.601Z,4.80
2023-07-25T14:07:33.573Z,4.23
2023-07-25T14:10:37.461Z,3.80
2023-07-25T14:13:40.330Z,3.70
2023-07-25T14:16:43.136Z,3.90
2023-07-25T14:19:46.149Z,4.25
2023-07-25T14:22:48.887Z,3.53
2023-07-25T14:25:51.641Z,3.85
2023-07-25T14:28:54.331Z,3.50
2023-07-25T14:31:57.180Z,3.30
2023-07-25T14:35:00.102Z,3.15
2023-07-25T14:38:03.250Z,3.13
2023-07-25T14:41:07.562Z,3.50
2023-07-25T14:44:10.427Z,3.65
2023-07-25T14:47:13.241Z,3.97
2023-07-25T14:50:16.058Z,3.38
2023-07-25T14:53:19.244Z,3.10
2023-07-25T14:56:22.060Z,3.60
2023-07-25T14:59:24.838Z,3.55
2023-07-25T15:02:27.929Z,2.80
2023-07-25T15:05:30.879Z,3.00
2023-07-25T15:08:33.734Z,2.73
2023-07-25T15:11:39.759Z,3.10
2023-07-25T15:14:42.552Z,3.38
2023-07-25T15:17:45.451Z,2.67
2023-07-25T15:20:48.256Z,3.17
2023-07-25T15:23:50.998Z,3.10
2023-07-25T15:26:53.867Z,3.03
2023-07-25T15:29:57.654Z,3.47
2023-07-25T15:33:00.558Z,2.92
2023-07-25T15:36:03.556Z,2.90
2023-07-25T15:39:06.306Z,3.03
2023-07-25T15:42:09.098Z,3.30
2023-07-25T15:45:11.863Z,3.42
2023-07-25T15:48:14.776Z,2.83
2023-07-25T15:51:18.116Z,2.78
2023-07-25T15:54:20.902Z,2.73
2023-07-25T15:57:23.620Z,3.10
2023-07-25T16:00:26.760Z,3.10
2023-07-25T16:03:29.623Z,3.13
2023-07-25T16:06:32.478Z,3.47
2023-07-25T16:09:35.279Z,2.63
2023-07-25T16:12:38.115Z,3.22
2023-07-25T16:15:40.946Z,3.20
2023-07-25T16:18:44.073Z,2.97
2023-07-25T16:21:46.917Z,3.10
2023-07-25T16:24:49.796Z,2.70
2023-07-25T16:27:53.279Z,2.80
2023-07-25T16:31:11.556Z,2.88
2023-07-25T16:34:18.965Z,2.70
2023-07-25T16:37:21.712Z,3.08
2023-07-25T16:40:24.449Z,2.80
2023-07-25T16:43:30.030Z,3.00
2023-07-25T16:46:32.856Z,3.10
2023-07-25T16:49:35.752Z,2.90
2023-07-25T16:52:39.122Z,3.08
2023-07-25T16:55:41.867Z,3.10
2023-07-25T16:58:44.631Z,2.85
2023-07-25T17:01:50.758Z,2.88
2023-07-25T17:05:02.145Z,2.97
2023-07-25T17:08:08.174Z,3.08
2023-07-25T17:15:04.624Z,2.67
2023-07-25T17:18:07.549Z,3.50
2023-07-25T17:21:16.358Z,3.05
2023-07-25T17:24:22.566Z,2.97
2023-07-25T17:27:25.944Z,3.13
2023-07-25T17:30:30.830Z,3.55
2023-07-25T17:33:33.897Z,3.05
2023-07-25T17:36:36.951Z,3.28
2023-07-25T17:39:39.688Z,3.22
2023-07-25T17:42:42.727Z,3.27
2023-07-25T17:45:45.670Z,3.00
2023-07-25T17:48:48.509Z,3.78
2023-07-25T17:51:51.266Z,3.20
2023-07-25T17:54:54.157Z,3.95
2023-07-25T17:57:57.010Z,2.90
2023-07-25T18:01:00.101Z,3.30
2023-07-25T18:04:05.137Z,3.15
2023-07-25T18:07:07.940Z,3.10
2023-07-25T18:10:10.906Z,3.47
2023-07-25T18:13:14.025Z,3.03
2023-07-25T18:16:16.811Z,2.75
2023-07-25T18:19:19.578Z,3.58
2023-07-25T18:22:23.027Z,3.22
2023-07-25T18:25:25.856Z,3.25
2023-07-25T18:28:29.032Z,2.73
2023-07-25T18:31:32.096Z,2.92
2023-07-25T18:34:35.198Z,3.13
2023-07-25T18:37:37.946Z,3.08
2023-07-25T18:40:40.913Z,3.53
2023-07-25T18:43:43.673Z,3.00
2023-07-25T18:46:46.491Z,3.30
2023-07-25T18:49:49.374Z,3.35
2023-07-25T18:52:52.214Z,3.80
2023-07-25T18:55:54.996Z,3.38
2023-07-25T18:58:57.781Z,3.43
2023-07-25T19:02:00.705Z,3.35
2023-07-25T19:05:03.643Z,3.70
2023-07-25T19:08:06.448Z,4.00
2023-07-25T19:11:09.316Z,3.88
2023-07-25T19:14:12.075Z,3.60
2023-07-25T19:17:14.889Z,2.78
2023-07-25T19:20:17.939Z,3.45
2023-07-25T19:23:26.438Z,3.03
2023-07-25T19:26:30.840Z,2.83
2023-07-25T19:29:34.073Z,3.10
2023-07-25T19:32:37.636Z,2.83
2023-07-25T19:35:42.660Z,2.80
2023-07-25T19:38:45.657Z,3.00
2023-07-25T19:41:49.647Z,2.92
2023-07-25T19:44:53.895Z,2.80
2023-07-25T19:47:58.685Z,2.45
2023-07-25T19:51:12.328Z,2.88
2023-07-25T19:54:15.266Z,2.38
2023-07-25T19:57:18.196Z,2.88
2023-07-25T20:00:21.117Z,2.30
2023-07-25T20:03:24.122Z,2.22
2023-07-25T20:06:27.198Z,2.05
2023-07-25T20:09:30.064Z,2.20
2023-07-25T20:12:32.853Z,2.05
2023-07-25T20:15:35.712Z,1.70
2023-07-25T20:18:38.532Z,1.65
2023-07-25T20:21:45.954Z,1.60
2023-07-25T20:24:48.745Z,1.63
2023-07-25T20:27:51.595Z,1.77
2023-07-25T20:30:54.341Z,1.40
2023-07-25T20:33:57.496Z,1.65
2023-07-25T20:37:00.954Z,1.13
2023-07-25T20:40:06.453Z,1.40
2023-07-25T20:43:10.698Z,1.42
2023-07-25T20:46:14.011Z,1.00
2023-07-25T20:49:16.955Z,1.40
2023-07-25T20:52:19.743Z,1.30
2023-07-25T20:55:22.556Z,1.08
2023-07-25T20:58:25.873Z,1.20
2023-07-25T21:01:28.654Z,1.07
2023-07-25T21:04:31.440Z,0.98
2023-07-25T21:07:34.601Z,1.52
2023-07-25T21:10:37.342Z,1.10
2023-07-25T21:13:41.309Z,1.15
2023-07-25T21:16:44.120Z,1.00
2023-07-25T21:19:46.987Z,1.13
2023-07-25T21:22:50.606Z,1.20
2023-07-25T21:25:53.415Z,1.20
2023-07-25T21:28:56.405Z,1.30
2023-07-25T21:31:59.288Z,1.20
2023-07-25T21:35:02.186Z,1.38
2023-07-25T21:38:05.137Z,1.13
2023-07-25T21:41:09.773Z,1.02
2023-07-25T21:44:12.983Z,1.00
2023-07-25T21:47:15.808Z,0.70
2023-07-25T21:50:18.525Z,0.90
2023-07-25T21:53:21.356Z,1.10
2023-07-25T21:56:24.144Z,0.90
2023-07-25T21:59:26.957Z,2.30
2023-07-25T22:02:29.964Z,1.00
2023-07-25T22:05:32.770Z,1.00
2023-07-25T22:08:36.647Z,0.98
2023-07-25T22:11:39.493Z,0.80
2023-07-25T22:14:42.340Z,1.00
2023-07-25T22:17:45.167Z,1.17
2023-07-25T22:20:52.441Z,1.23
2023-07-25T22:23:56.047Z,1.20
2023-07-25T22:26:58.995Z,1.20
2023-07-25T22:30:01.837Z,1.02
2023-07-25T22:33:04.824Z,1.10
2023-07-25T22:36:08.316Z,1.00
2023-07-25T22:39:11.151Z,1.00
2023-07-25T22:42:15.110Z,1.30
2023-07-25T22:45:17.882Z,1.40
2023-07-25T22:48:20.699Z,1.30
2023-07-25T22:51:23.598Z,1.17
2023-07-25T22:54:27.330Z,1.30
2023-07-25T22:57:30.231Z,1.10
2023-07-25T23:00:33.075Z,1.20
2023-07-25T23:03:37.690Z,1.70
2023-07-25T23:06:40.507Z,1.70
2023-07-25T23:09:43.248Z,1.40
2023-07-25T23:12:48.753Z,1.40
2023-07-25T23:15:51.670Z,1.98
2023-07-25T23:18:55.038Z,1.20
2023-07-25T23:21:57.773Z,1.42
2023-07-25T23:25:00.651Z,1.02
2023-07-25T23:28:03.538Z,1.20
2023-07-25T23:31:06.526Z,1.20
2023-07-25T23:34:09.370Z,1.40
2023-07-25T23:37:12.298Z,1.10
2023-07-25T23:40:15.178Z,1.60
2023-07-25T23:43:18.072Z,1.45
2023-07-25T23:46:20.850Z,1.30
2023-07-25T23:49:23.702Z,1.90
2023-07-25T23:52:26.562Z,1.80
2023-07-25T23:55:29.450Z,1.50
2023-07-25T23:58:32.398Z,1.60
